M\v Black Rhino — V7TR7 — position and weather

sailwx.info

Track history (hours):
 
Tides and Currents Weather Stations Pressure Air Temp Water Temp Dewpoint Dewpoint Depression Visibility Wind Speed Wind Dir Waves Ship Positions

M\v Black Rhino

Last reported at 2014-Aug-16 07:15 UTC. Time now 2014-Aug-23 19:49 UTC.
Position S 29°18' E 031°45'.

Length 100 m; draft 5.7 m.

Type: Cargo ship. MMSI: 538090408.

Date/timePositionNaut miles runAvg speedWind from/ knotsBaromVisibWave heightAir tempDewpointWater temp
2014-Aug-16 07:15S 29°18' E 031°45'811.0
2014-Aug-16 06:31S 29°24' E 031°38'1111.2
2014-Aug-16 05:33S 29°31' E 031°29'1211.7
2014-Aug-16 04:33S 29°38' E 031°19'1111.5
2014-Aug-16 03:33S 29°46' E 031°09'8 8.2
2014-Aug-16 02:33S 29°52' E 031°03'0 0.1
2014-Aug-16 01:29S 29°52' E 031°03'0 0.0
2014-Aug-16 00:23S 29°52' E 031°03'0 0.0
2014-Aug-15 23:23S 29°52' E 031°03'0 0.0
2014-Aug-15 22:23S 29°52' E 031°03'0 0.0
2014-Aug-15 21:23S 29°52' E 031°03'0 0.0
2014-Aug-15 20:29S 29°52' E 031°03'0 0.0
2014-Aug-15 19:05S 29°52' E 031°03'0 0.0
2014-Aug-15 18:29S 29°52' E 031°03'0 0.0
2014-Aug-15 17:29S 29°52' E 031°03'0 0.0
2014-Aug-15 14:29S 29°52' E 031°03'0 0.0
2014-Aug-15 13:05S 29°52' E 031°03'0 0.0
2014-Aug-15 12:23S 29°52' E 031°03'0 0.0
2014-Aug-15 11:29S 29°52' E 031°03'0 0.0
2014-Aug-15 10:17S 29°52' E 031°03'0 0.0
2014-Aug-15 09:17S 29°52' E 031°03'0 0.0
2014-Aug-15 08:29S 29°52' E 031°03'0 0.0
2014-Aug-15 07:23S 29°52' E 031°03'0 0.0
2014-Aug-15 06:29S 29°52' E 031°03'0 0.0
2014-Aug-15 05:29S 29°52' E 031°03'0 0.0
2014-Aug-15 04:11S 29°52' E 031°03'0 0.0
2014-Aug-15 03:05S 29°52' E 031°03'0 0.0
2014-Aug-15 02:29S 29°52' E 031°03'0 0.0
2014-Aug-15 01:23S 29°52' E 031°03'0 0.0
2014-Aug-15 00:23S 29°52' E 031°03'0 0.0
2014-Aug-14 23:11S 29°52' E 031°03'0 0.0
2014-Aug-14 22:23S 29°52' E 031°03'0 0.0
2014-Aug-14 21:23S 29°52' E 031°03'0 0.0
2014-Aug-14 20:33S 29°52' E 031°03'4 4.2
2014-Aug-14 19:33S 29°49' E 031°05'0 0.4
2014-Aug-14 18:32S 29°49' E 031°06'4 4.1
2014-Aug-14 17:34S 29°45' E 031°06'0 0.0
2014-Aug-14 16:25S 29°45' E 031°06'0 0.0
2014-Aug-14 15:31S 29°45' E 031°06'0 0.0
2014-Aug-14 14:31S 29°45' E 031°06'0 0.0
2014-Aug-14 13:19S 29°45' E 031°06'0 0.0
2014-Aug-14 12:31S 29°45' E 031°06'0 0.0
2014-Aug-14 11:31S 29°45' E 031°06'0 0.0
2014-Aug-14 10:31S 29°45' E 031°06'0 0.0
2014-Aug-14 09:31S 29°45' E 031°06'0 0.0
2014-Aug-14 08:31S 29°45' E 031°06'0 0.0
2014-Aug-14 07:25S 29°45' E 031°06'0 0.0
2014-Aug-14 06:31S 29°45' E 031°06'0 0.0
2014-Aug-14 04:31S 29°45' E 031°06'0 0.2
2014-Aug-14 03:25S 29°45' E 031°06'0 0.0
2014-Aug-14 02:31S 29°45' E 031°06'0 0.0
2014-Aug-14 01:31S 29°45' E 031°06'0 0.0
2014-Aug-14 00:31S 29°45' E 031°06'0 0.0
2014-Aug-13 23:31S 29°45' E 031°06'0 0.0
2014-Aug-13 22:33S 29°45' E 031°06'1 1.4
2014-Aug-13 21:33S 29°45' E 031°08'9 9.2
2014-Aug-13 20:33S 29°40' E 031°17'1110.7
2014-Aug-13 19:32S 29°33' E 031°26'1111.1
2014-Aug-13 18:32S 29°26' E 031°36'1212.5
2014-Aug-13 17:32S 29°17' E 031°46'  
Track history (hours):
 
Tides and Currents Weather Stations Pressure Air Temp Water Temp Dewpoint Dewpoint Depression Visibility Wind Speed Wind Dir Waves Ship Positions

M\v Black Rhino

Last reported at 2014-Aug-16 07:15 UTC. Time now 2014-Aug-23 19:49 UTC.
Position S 29°18' E 031°45'.

Length 100 m; draft 5.7 m.

Type: Cargo ship. MMSI: 538090408.

Date/timePositionNaut miles runAvg speedWind from/ knotsBaromVisibWave heightAir tempDewpointWater temp
2014-Aug-16 07:15S 29°18' E 031°45'811.0
2014-Aug-16 06:31S 29°24' E 031°38'1111.2
2014-Aug-16 05:33S 29°31' E 031°29'1211.7
2014-Aug-16 04:33S 29°38' E 031°19'1111.5
2014-Aug-16 03:33S 29°46' E 031°09'8 8.2
2014-Aug-16 02:33S 29°52' E 031°03'0 0.1
2014-Aug-16 01:29S 29°52' E 031°03'0 0.0
2014-Aug-16 00:23S 29°52' E 031°03'0 0.0
2014-Aug-15 23:23S 29°52' E 031°03'0 0.0
2014-Aug-15 22:23S 29°52' E 031°03'0 0.0
2014-Aug-15 21:23S 29°52' E 031°03'0 0.0
2014-Aug-15 20:29S 29°52' E 031°03'0 0.0
2014-Aug-15 19:05S 29°52' E 031°03'0 0.0
2014-Aug-15 18:29S 29°52' E 031°03'0 0.0
2014-Aug-15 17:29S 29°52' E 031°03'0 0.0
2014-Aug-15 14:29S 29°52' E 031°03'0 0.0
2014-Aug-15 13:05S 29°52' E 031°03'0 0.0
2014-Aug-15 12:23S 29°52' E 031°03'0 0.0
2014-Aug-15 11:29S 29°52' E 031°03'0 0.0
2014-Aug-15 10:17S 29°52' E 031°03'0 0.0
2014-Aug-15 09:17S 29°52' E 031°03'0 0.0
2014-Aug-15 08:29S 29°52' E 031°03'0 0.0
2014-Aug-15 07:23S 29°52' E 031°03'0 0.0
2014-Aug-15 06:29S 29°52' E 031°03'0 0.0
2014-Aug-15 05:29S 29°52' E 031°03'0 0.0
2014-Aug-15 04:11S 29°52' E 031°03'0 0.0
2014-Aug-15 03:05S 29°52' E 031°03'0 0.0
2014-Aug-15 02:29S 29°52' E 031°03'0 0.0
2014-Aug-15 01:23S 29°52' E 031°03'0 0.0
2014-Aug-15 00:23S 29°52' E 031°03'0 0.0
2014-Aug-14 23:11S 29°52' E 031°03'0 0.0
2014-Aug-14 22:23S 29°52' E 031°03'0 0.0
2014-Aug-14 21:23S 29°52' E 031°03'0 0.0
2014-Aug-14 20:33S 29°52' E 031°03'4 4.2
2014-Aug-14 19:33S 29°49' E 031°05'0 0.4
2014-Aug-14 18:32S 29°49' E 031°06'4 4.1
2014-Aug-14 17:34S 29°45' E 031°06'0 0.0
2014-Aug-14 16:25S 29°45' E 031°06'0 0.0
2014-Aug-14 15:31S 29°45' E 031°06'0 0.0
2014-Aug-14 14:31S 29°45' E 031°06'0 0.0
2014-Aug-14 13:19S 29°45' E 031°06'0 0.0
2014-Aug-14 12:31S 29°45' E 031°06'0 0.0
2014-Aug-14 11:31S 29°45' E 031°06'0 0.0
2014-Aug-14 10:31S 29°45' E 031°06'0 0.0
2014-Aug-14 09:31S 29°45' E 031°06'0 0.0
2014-Aug-14 08:31S 29°45' E 031°06'0 0.0
2014-Aug-14 07:25S 29°45' E 031°06'0 0.0
2014-Aug-14 06:31S 29°45' E 031°06'0 0.0
2014-Aug-14 04:31S 29°45' E 031°06'0 0.2
2014-Aug-14 03:25S 29°45' E 031°06'0 0.0
2014-Aug-14 02:31S 29°45' E 031°06'0 0.0
2014-Aug-14 01:31S 29°45' E 031°06'0 0.0
2014-Aug-14 00:31S 29°45' E 031°06'0 0.0
2014-Aug-13 23:31S 29°45' E 031°06'0 0.0
2014-Aug-13 22:33S 29°45' E 031°06'1 1.4
2014-Aug-13 21:33S 29°45' E 031°08'9 9.2
2014-Aug-13 20:33S 29°40' E 031°17'1110.7
2014-Aug-13 19:32S 29°33' E 031°26'1111.1
2014-Aug-13 18:32S 29°26' E 031°36'1212.5
2014-Aug-13 17:32S 29°17' E 031°46'  

Dump ship's entire track history